createdAt,value
2018-06-12T00:00:53.014Z,17.30
2018-06-12T00:03:19.949Z,17.20
2018-06-12T00:05:46.894Z,17.20
2018-06-12T00:08:13.805Z,17.20
2018-06-12T00:10:40.737Z,17.20
2018-06-12T00:13:08.133Z,17.30
2018-06-12T00:15:35.054Z,17.20
2018-06-12T00:18:02.014Z,17.10
2018-06-12T00:20:28.925Z,17.00
2018-06-12T00:22:55.856Z,17.00
2018-06-12T00:25:22.766Z,17.10
2018-06-12T00:27:49.700Z,16.90
2018-06-12T00:30:16.622Z,16.90
2018-06-12T00:32:43.538Z,16.80
2018-06-12T00:35:10.493Z,16.80
2018-06-12T00:37:37.405Z,16.80
2018-06-12T00:40:04.337Z,16.70
2018-06-12T00:42:31.245Z,16.70
2018-06-12T00:44:58.178Z,16.60
2018-06-12T00:47:25.106Z,16.50
2018-06-12T00:49:52.043Z,16.60
2018-06-12T00:52:18.957Z,16.50
2018-06-12T00:54:45.889Z,16.50
2018-06-12T00:57:12.810Z,16.50
2018-06-12T00:59:39.810Z,16.40
2018-06-12T01:02:06.723Z,16.50
2018-06-12T01:04:33.667Z,16.50
2018-06-12T01:07:00.614Z,16.50
2018-06-12T01:09:27.564Z,16.50
2018-06-12T01:11:54.481Z,16.50
2018-06-12T01:14:22.227Z,16.40
2018-06-12T01:16:50.298Z,16.40
2018-06-12T01:19:17.244Z,16.40
2018-06-12T01:21:45.214Z,16.30
2018-06-12T01:24:12.129Z,16.20
2018-06-12T01:26:39.073Z,16.10
2018-06-12T01:29:05.994Z,16.00
2018-06-12T01:31:32.960Z,15.90
2018-06-12T01:33:59.893Z,15.80
2018-06-12T01:36:26.865Z,15.90
2018-06-12T01:38:53.787Z,15.90
2018-06-12T01:41:20.738Z,15.70
2018-06-12T01:43:47.653Z,15.80
2018-06-12T01:46:14.575Z,15.80
2018-06-12T01:48:41.522Z,15.70
2018-06-12T01:51:08.437Z,15.50
2018-06-12T01:53:35.386Z,15.60
2018-06-12T01:56:02.310Z,15.60
2018-06-12T01:58:29.246Z,15.40
2018-06-12T02:00:56.169Z,15.30
2018-06-12T02:03:23.115Z,15.30
2018-06-12T02:05:50.053Z,15.30
2018-06-12T02:08:16.993Z,15.30
2018-06-12T02:10:43.960Z,15.30
2018-06-12T02:13:10.935Z,15.20
2018-06-12T02:15:37.869Z,15.20
2018-06-12T02:18:04.818Z,15.20
2018-06-12T02:20:32.036Z,15.00
2018-06-12T02:22:58.977Z,15.00
2018-06-12T02:25:25.883Z,15.00
2018-06-12T02:27:52.821Z,15.00
2018-06-12T02:33:26.811Z,14.90
2018-06-12T02:35:53.737Z,14.80
2018-06-12T02:38:20.675Z,14.80
2018-06-12T02:40:47.586Z,14.70
2018-06-12T02:43:14.517Z,14.80
2018-06-12T02:45:41.422Z,14.70
2018-06-12T02:48:08.363Z,14.60
2018-06-12T02:50:35.277Z,14.60
2018-06-12T02:53:02.227Z,14.50
2018-06-12T02:55:29.158Z,14.60
2018-06-12T02:57:56.094Z,14.70
2018-06-12T03:00:23.014Z,14.70
2018-06-12T03:02:49.957Z,14.60
2018-06-12T03:05:16.898Z,14.60
2018-06-12T03:07:43.834Z,14.60
2018-06-12T03:10:10.754Z,14.50
2018-06-12T03:12:37.702Z,14.50
2018-06-12T03:15:04.631Z,14.40
2018-06-12T03:17:31.570Z,14.30
2018-06-12T03:19:58.477Z,14.20
2018-06-12T03:22:25.417Z,14.10
2018-06-12T03:24:52.330Z,14.00
2018-06-12T03:27:19.266Z,14.10
2018-06-12T03:29:46.178Z,14.00
2018-06-12T03:32:13.122Z,14.10
2018-06-12T03:34:40.038Z,14.10
2018-06-12T03:37:06.978Z,14.00
2018-06-12T03:39:33.892Z,14.00
2018-06-12T03:42:00.829Z,14.00
2018-06-12T03:44:27.753Z,14.00
2018-06-12T03:46:55.047Z,13.90
2018-06-12T03:49:22.289Z,13.90
2018-06-12T03:51:49.198Z,13.90
2018-06-12T03:54:16.206Z,13.90
2018-06-12T03:56:43.169Z,13.90
2018-06-12T03:59:10.138Z,13.90
2018-06-12T04:01:37.078Z,13.80
2018-06-12T04:04:04.141Z,13.90
2018-06-12T04:06:32.265Z,13.90
2018-06-12T04:08:59.202Z,13.90
2018-06-12T04:11:26.121Z,13.90
2018-06-12T04:13:53.065Z,13.80
2018-06-12T04:16:19.981Z,13.80
2018-06-12T04:18:47.173Z,13.80
2018-06-12T04:21:14.361Z,13.80
2018-06-12T04:23:41.463Z,13.90
2018-06-12T04:26:08.378Z,13.90
2018-06-12T04:28:35.284Z,14.00
2018-06-12T04:31:02.230Z,14.00
2018-06-12T04:33:29.392Z,13.90
2018-06-12T04:35:56.333Z,13.90
2018-06-12T04:38:23.249Z,13.90
2018-06-12T04:40:50.195Z,14.00
2018-06-12T04:43:17.128Z,14.10
2018-06-12T04:45:44.074Z,14.10
2018-06-12T04:48:10.987Z,14.10
2018-06-12T04:50:37.945Z,14.20
2018-06-12T04:53:04.894Z,14.10
2018-06-12T04:55:31.814Z,14.20
2018-06-12T04:57:58.760Z,14.10
2018-06-12T05:00:25.997Z,14.10
2018-06-12T05:02:52.938Z,14.20
2018-06-12T05:05:19.887Z,14.20
2018-06-12T05:07:46.836Z,14.20
2018-06-12T05:10:13.746Z,14.30
2018-06-12T05:12:40.690Z,14.20
2018-06-12T05:15:07.613Z,14.20
2018-06-12T05:17:34.581Z,14.30
2018-06-12T05:20:01.564Z,14.30
2018-06-12T05:22:28.473Z,14.30
2018-06-12T05:24:55.396Z,14.30
2018-06-12T05:27:22.340Z,14.30
2018-06-12T05:29:49.349Z,14.30
2018-06-12T05:32:16.294Z,14.40
2018-06-12T05:34:43.214Z,14.60
2018-06-12T05:37:10.167Z,14.70
2018-06-12T05:39:37.093Z,14.80
2018-06-12T05:42:04.155Z,14.80
2018-06-12T05:44:31.073Z,14.80
2018-06-12T05:46:58.058Z,14.80
2018-06-12T05:49:25.086Z,14.90
2018-06-12T05:51:52.010Z,14.90
2018-06-12T05:54:18.965Z,14.90
2018-06-12T05:56:45.882Z,15.00
2018-06-12T05:59:12.827Z,15.00
2018-06-12T06:01:39.754Z,14.90
2018-06-12T06:04:06.731Z,14.90
2018-06-12T06:06:33.710Z,14.80
2018-06-12T06:09:00.654Z,14.80
2018-06-12T06:11:27.574Z,14.80
2018-06-12T06:13:54.821Z,14.80
2018-06-12T06:16:21.749Z,15.10
2018-06-12T06:18:48.878Z,15.30
2018-06-12T06:21:15.805Z,15.50
2018-06-12T06:23:42.729Z,15.40
2018-06-12T06:26:09.967Z,15.50
2018-06-12T06:28:36.898Z,15.60
2018-06-12T06:31:03.911Z,15.80
2018-06-12T06:33:30.834Z,15.80
2018-06-12T06:35:57.778Z,16.10
2018-06-12T06:38:24.704Z,16.40
2018-06-12T06:40:51.648Z,16.70
2018-06-12T06:43:18.561Z,16.70
2018-06-12T06:45:45.519Z,16.60
2018-06-12T06:48:12.438Z,16.50
2018-06-12T06:50:39.386Z,16.60
2018-06-12T06:53:06.343Z,16.70
2018-06-12T06:55:33.286Z,16.60
2018-06-12T06:58:00.576Z,16.60
2018-06-12T07:00:27.534Z,16.80
2018-06-12T07:02:54.473Z,16.80
2018-06-12T07:05:21.913Z,17.40
2018-06-12T07:07:48.837Z,17.90
2018-06-12T07:10:15.786Z,18.20
2018-06-12T07:12:42.706Z,18.90
2018-06-12T07:15:09.661Z,19.10
2018-06-12T07:17:36.582Z,19.40
2018-06-12T07:20:03.933Z,19.30
2018-06-12T07:22:30.850Z,18.90
2018-06-12T07:24:57.805Z,18.80
2018-06-12T07:27:24.725Z,18.80
2018-06-12T07:29:51.673Z,18.90
2018-06-12T07:32:18.624Z,18.80
2018-06-12T07:34:45.574Z,18.50
2018-06-12T07:37:12.497Z,18.80
2018-06-12T07:39:39.433Z,19.10
2018-06-12T07:42:06.354Z,19.30
2018-06-12T07:44:33.294Z,19.30
2018-06-12T07:47:00.218Z,19.10
2018-06-12T07:49:27.414Z,19.00
2018-06-12T07:51:54.338Z,19.10
2018-06-12T07:54:21.314Z,19.10
2018-06-12T07:56:48.234Z,18.70
2018-06-12T07:59:15.250Z,18.30
2018-06-12T08:01:42.191Z,18.10
2018-06-12T08:04:09.133Z,17.90
2018-06-12T08:06:36.066Z,17.60
2018-06-12T08:09:04.238Z,17.50
2018-06-12T08:11:31.159Z,17.30
2018-06-12T08:13:58.066Z,17.20
2018-06-12T08:16:25.290Z,17.10
2018-06-12T08:18:52.211Z,17.20
2018-06-12T08:21:19.162Z,17.30
2018-06-12T08:23:46.077Z,17.40
2018-06-12T08:26:13.313Z,17.60
2018-06-12T08:28:40.232Z,17.80
2018-06-12T08:31:07.182Z,18.20
2018-06-12T08:33:34.093Z,18.70
2018-06-12T08:36:01.125Z,19.00
2018-06-12T08:38:28.033Z,18.90
2018-06-12T08:40:55.023Z,19.20
2018-06-12T08:43:21.989Z,19.20
2018-06-12T08:45:48.938Z,19.20
2018-06-12T08:48:16.174Z,19.20
2018-06-12T08:50:43.169Z,18.80
2018-06-12T08:53:10.086Z,18.80
2018-06-12T08:55:37.002Z,18.50
2018-06-12T08:58:03.962Z,18.40
2018-06-12T09:00:30.882Z,18.40
2018-06-12T09:02:57.822Z,18.50
2018-06-12T09:05:24.774Z,18.50
2018-06-12T09:07:51.746Z,18.50
2018-06-12T09:10:18.667Z,18.60
2018-06-12T09:12:45.626Z,18.60
2018-06-12T09:15:12.881Z,18.60
2018-06-12T09:17:39.825Z,18.70
2018-06-12T09:20:06.747Z,18.80
2018-06-12T09:22:33.695Z,18.90
2018-06-12T09:25:00.869Z,19.00
2018-06-12T09:27:27.867Z,19.10
2018-06-12T09:29:54.781Z,19.10
2018-06-12T09:33:29.874Z,19.80
2018-06-12T09:36:02.586Z,21.10
2018-06-12T09:38:29.566Z,22.70
2018-06-12T09:40:56.490Z,23.30
2018-06-12T09:43:23.429Z,24.00
2018-06-12T09:45:50.351Z,24.00
2018-06-12T09:48:17.303Z,24.30
2018-06-12T09:50:44.218Z,25.50
2018-06-12T09:53:11.166Z,26.50
2018-06-12T09:55:38.108Z,27.20
2018-06-12T09:58:05.059Z,28.10
2018-06-12T10:00:37.838Z,27.40
2018-06-12T10:03:04.956Z,27.20
2018-06-12T10:05:31.879Z,27.10
2018-06-12T10:07:58.855Z,27.00
2018-06-12T10:10:25.798Z,26.60
2018-06-12T10:12:52.753Z,26.40
2018-06-12T10:15:19.673Z,26.50
2018-06-12T10:20:13.522Z,26.90
2018-06-12T10:22:40.462Z,28.20
2018-06-12T10:25:07.454Z,28.90
2018-06-12T10:27:34.613Z,28.30
2018-06-12T10:32:28.457Z,28.50
2018-06-12T10:34:55.376Z,29.20
2018-06-12T10:37:22.382Z,30.10
2018-06-12T10:39:49.533Z,30.30
2018-06-12T10:42:16.477Z,29.30
2018-06-12T10:44:43.398Z,29.90
2018-06-12T10:47:10.344Z,30.50
2018-06-12T10:49:37.274Z,31.60
2018-06-12T10:52:04.194Z,32.70
2018-06-12T10:54:31.146Z,32.50
2018-06-12T10:56:58.066Z,31.60
2018-06-12T10:59:25.046Z,30.70
2018-06-12T11:01:51.981Z,31.50
2018-06-12T11:04:18.926Z,31.60
2018-06-12T11:06:45.866Z,31.80
2018-06-12T11:09:12.805Z,32.30
2018-06-12T11:11:39.725Z,32.30
2018-06-12T11:14:06.670Z,31.80
2018-06-12T11:16:33.584Z,31.80
2018-06-12T11:19:00.534Z,32.80
2018-06-12T11:21:27.449Z,33.40
2018-06-12T11:23:54.389Z,34.70
2018-06-12T11:26:21.602Z,35.10
2018-06-12T11:28:48.551Z,33.50
2018-06-12T11:31:15.473Z,31.30
2018-06-12T11:33:42.417Z,30.30
2018-06-12T11:36:09.329Z,29.80
2018-06-12T11:38:36.266Z,29.10
2018-06-12T11:41:03.182Z,28.60
2018-06-12T11:43:30.127Z,28.50
2018-06-12T11:45:57.042Z,28.20
2018-06-12T11:48:23.986Z,28.00
2018-06-12T11:50:50.898Z,27.40
2018-06-12T11:53:17.835Z,27.50
2018-06-12T11:55:44.757Z,27.20
2018-06-12T11:58:11.714Z,26.70
2018-06-12T12:00:38.639Z,26.90
2018-06-12T12:03:05.854Z,26.70
2018-06-12T12:05:32.796Z,26.50
2018-06-12T12:07:59.741Z,26.20
2018-06-12T12:10:26.655Z,27.30
2018-06-12T12:12:53.566Z,28.90
2018-06-12T12:15:20.744Z,28.70
2018-06-12T12:17:47.666Z,29.30
2018-06-12T12:20:14.629Z,29.60
2018-06-12T12:22:41.889Z,29.40
2018-06-12T12:25:09.188Z,29.60
2018-06-12T12:27:36.106Z,29.40
2018-06-12T12:30:03.055Z,29.20
2018-06-12T12:32:29.982Z,28.60
2018-06-12T12:34:56.922Z,28.20
2018-06-12T12:37:23.850Z,27.40
2018-06-12T12:39:50.793Z,26.90
2018-06-12T12:42:17.709Z,27.50
2018-06-12T12:44:45.117Z,28.20
2018-06-12T12:47:12.025Z,28.80
2018-06-12T12:49:38.978Z,29.20
2018-06-12T12:52:05.901Z,29.90
2018-06-12T12:54:33.378Z,29.20
2018-06-12T12:57:00.815Z,28.10
2018-06-12T12:59:28.275Z,27.30
2018-06-12T13:01:55.190Z,26.70
2018-06-12T13:04:22.137Z,25.90
2018-06-12T13:06:49.079Z,25.30
2018-06-12T13:09:16.018Z,25.30
2018-06-12T13:11:42.930Z,25.20
2018-06-12T13:14:09.878Z,25.60
2018-06-12T13:16:36.798Z,26.40
2018-06-12T13:19:03.750Z,27.10
2018-06-12T13:21:30.665Z,27.10
2018-06-12T13:23:57.604Z,26.30
2018-06-12T13:26:24.558Z,25.70
2018-06-12T13:28:51.464Z,25.80
2018-06-12T13:31:18.406Z,25.80
2018-06-12T13:33:45.373Z,25.40
2018-06-12T13:36:12.662Z,25.50
2018-06-12T13:38:39.597Z,25.60
2018-06-12T13:41:06.555Z,25.90
2018-06-12T13:43:33.757Z,26.60
2018-06-12T13:46:00.670Z,27.50
2018-06-12T13:48:27.901Z,28.70
2018-06-12T13:50:55.122Z,29.70
2018-06-12T13:55:50.438Z,28.10
2018-06-12T13:58:17.878Z,27.50
2018-06-12T14:00:45.662Z,26.50
2018-06-12T14:03:13.098Z,26.60
2018-06-12T14:05:40.582Z,27.90
2018-06-12T14:08:08.940Z,28.20
2018-06-12T14:10:36.474Z,26.80
2018-06-12T14:13:03.433Z,25.50
2018-06-12T14:15:30.579Z,24.90
2018-06-12T14:17:57.499Z,24.70
2018-06-12T14:20:24.461Z,24.80
2018-06-12T14:22:51.678Z,24.90
2018-06-12T14:25:18.781Z,25.00
2018-06-12T14:27:45.818Z,24.50
2018-06-12T14:30:12.801Z,24.80
2018-06-12T14:32:39.769Z,25.60
2018-06-12T14:35:06.705Z,26.10
2018-06-12T14:37:33.625Z,25.50
2018-06-12T14:40:00.630Z,24.80
2018-06-12T14:42:27.550Z,24.40
2018-06-12T14:44:54.486Z,23.70
2018-06-12T14:47:21.408Z,23.50
2018-06-12T14:49:48.347Z,22.90
2018-06-12T14:52:15.258Z,22.60
2018-06-12T14:54:42.201Z,22.60
2018-06-12T14:57:09.123Z,22.50
2018-06-12T14:59:36.089Z,22.90
2018-06-12T15:02:03.010Z,23.00
2018-06-12T15:04:29.958Z,23.10
2018-06-12T15:06:57.166Z,23.10
2018-06-12T15:09:24.341Z,23.00
2018-06-12T15:11:51.258Z,23.30
2018-06-12T15:14:18.198Z,23.70
2018-06-12T15:16:45.118Z,23.50
2018-06-12T15:19:12.066Z,23.40
2018-06-12T15:21:38.977Z,23.50
2018-06-12T15:24:05.921Z,23.50
2018-06-12T15:26:32.851Z,23.50
2018-06-12T15:28:59.799Z,23.10
2018-06-12T15:31:26.746Z,22.70
2018-06-12T15:33:53.687Z,21.90
2018-06-12T15:36:20.607Z,21.50
2018-06-12T15:38:47.545Z,21.50
2018-06-12T15:41:14.481Z,21.30
2018-06-12T15:43:41.417Z,21.00
2018-06-12T15:46:08.338Z,20.80
2018-06-12T15:48:35.350Z,20.80
2018-06-12T15:51:02.302Z,20.90
2018-06-12T15:53:29.237Z,21.10
2018-06-12T15:55:56.158Z,21.00
2018-06-12T15:58:23.119Z,20.80
2018-06-12T16:00:50.050Z,20.80
2018-06-12T16:03:16.971Z,20.80
2018-06-12T16:05:43.955Z,20.50
2018-06-12T16:08:10.873Z,20.30
2018-06-12T16:10:37.817Z,20.20
2018-06-12T16:13:04.737Z,20.10
2018-06-12T16:15:31.842Z,20.10
2018-06-12T16:17:58.897Z,20.00
2018-06-12T16:20:25.866Z,19.90
2018-06-12T16:25:19.706Z,19.80
2018-06-12T16:27:46.621Z,19.80
2018-06-12T16:30:13.558Z,19.80
2018-06-12T16:32:40.792Z,19.60
2018-06-12T16:35:07.918Z,19.40
2018-06-12T16:37:34.838Z,19.10
2018-06-12T16:40:01.754Z,19.00
2018-06-12T16:42:28.702Z,18.90
2018-06-12T16:44:55.629Z,18.90
2018-06-12T16:47:22.571Z,18.80
2018-06-12T16:49:49.485Z,18.80
2018-06-12T16:52:16.426Z,18.70
2018-06-12T16:54:43.333Z,18.60
2018-06-12T16:57:10.282Z,18.50
2018-06-12T16:59:37.498Z,18.40
2018-06-12T17:02:04.433Z,18.30
2018-06-12T17:04:31.371Z,18.20
2018-06-12T17:06:58.598Z,18.10
2018-06-12T17:09:25.520Z,18.20
2018-06-12T17:11:52.458Z,18.10
2018-06-12T17:14:19.377Z,18.00
2018-06-12T17:16:46.517Z,18.00
2018-06-12T17:19:13.464Z,18.10
2018-06-12T17:21:40.381Z,18.20
2018-06-12T17:24:07.318Z,18.20
2018-06-12T17:26:34.506Z,18.10
2018-06-12T17:29:01.445Z,18.20
2018-06-12T17:31:28.366Z,18.10
2018-06-12T17:33:55.309Z,18.20
2018-06-12T17:36:22.243Z,18.20
2018-06-12T17:38:49.193Z,18.20
2018-06-12T17:41:16.115Z,18.20
2018-06-12T17:43:43.061Z,18.20
2018-06-12T17:46:10.050Z,18.10
2018-06-12T17:48:36.986Z,18.10
2018-06-12T17:51:03.906Z,18.10
2018-06-12T17:53:30.839Z,18.10
2018-06-12T17:55:57.761Z,17.90
2018-06-12T17:58:24.706Z,17.90
2018-06-12T18:00:51.617Z,17.80
2018-06-12T18:03:18.561Z,17.70
2018-06-12T18:05:45.530Z,17.60
2018-06-12T18:08:12.445Z,17.50
2018-06-12T18:10:39.618Z,17.40
2018-06-12T18:13:06.534Z,17.30
2018-06-12T18:15:33.453Z,17.10
2018-06-12T18:18:00.397Z,17.00
2018-06-12T18:20:27.309Z,16.90
2018-06-12T18:22:54.245Z,16.80
2018-06-12T18:25:21.161Z,16.70
2018-06-12T18:27:48.093Z,16.70
2018-06-12T18:30:15.014Z,16.70
2018-06-12T18:32:41.954Z,16.70
2018-06-12T18:35:08.873Z,16.60
2018-06-12T18:37:35.810Z,16.60
2018-06-12T18:40:02.726Z,16.50
2018-06-12T18:42:29.670Z,16.50
2018-06-12T18:44:56.582Z,16.40
2018-06-12T18:47:23.514Z,16.40
2018-06-12T18:49:51.238Z,16.40
2018-06-12T18:52:18.202Z,16.20
2018-06-12T18:54:45.386Z,16.10
2018-06-12T18:57:12.305Z,16.00
2018-06-12T18:59:39.238Z,15.90
2018-06-12T19:02:06.149Z,15.80
2018-06-12T19:07:00.028Z,15.60
2018-06-12T19:09:26.987Z,15.60
2018-06-12T19:11:53.906Z,15.40
2018-06-12T19:14:20.849Z,15.30
2018-06-12T19:16:48.093Z,15.30
2018-06-12T19:19:15.030Z,15.20
2018-06-12T19:21:41.946Z,15.10
2018-06-12T19:24:08.882Z,15.00
2018-06-12T19:26:35.810Z,15.00
2018-06-12T19:29:02.766Z,15.00
2018-06-12T19:31:29.680Z,14.90
2018-06-12T19:33:56.625Z,14.90
2018-06-12T19:36:23.547Z,14.90
2018-06-12T19:38:50.504Z,14.80
2018-06-12T19:41:17.418Z,14.80
2018-06-12T19:43:44.358Z,14.80
2018-06-12T19:46:11.282Z,14.80
2018-06-12T19:48:38.223Z,14.80
2018-06-12T19:51:05.161Z,14.90
2018-06-12T19:53:32.097Z,14.90
2018-06-12T19:55:59.018Z,14.90
2018-06-12T20:01:35.210Z,14.90
2018-06-12T20:04:02.151Z,14.90
2018-06-12T20:06:29.108Z,14.90
2018-06-12T20:08:56.059Z,14.80
2018-06-12T20:11:22.978Z,14.80
2018-06-12T20:13:49.923Z,14.80
2018-06-12T20:16:16.848Z,14.80
2018-06-12T20:18:43.790Z,14.80
2018-06-12T20:21:10.702Z,14.70
2018-06-12T20:23:37.949Z,14.80
2018-06-12T20:26:04.874Z,14.80
2018-06-12T20:28:32.010Z,14.90
2018-06-12T20:30:59.181Z,14.90
2018-06-12T20:33:26.094Z,14.90
2018-06-12T20:35:53.038Z,14.90
2018-06-12T20:38:19.949Z,14.90
2018-06-12T20:40:46.895Z,14.90
2018-06-12T20:43:13.814Z,14.90
2018-06-12T20:45:41.119Z,14.90
2018-06-12T20:48:08.079Z,14.90
2018-06-12T20:50:35.014Z,14.90
2018-06-12T20:53:02.003Z,14.80
2018-06-12T20:55:28.944Z,14.80
2018-06-12T20:57:55.861Z,14.80
2018-06-12T21:00:22.797Z,14.80
2018-06-12T21:02:49.705Z,14.70
2018-06-12T21:05:16.673Z,14.70
2018-06-12T21:07:43.619Z,14.70
2018-06-12T21:10:10.586Z,14.70
2018-06-12T21:12:37.506Z,14.70
2018-06-12T21:15:04.459Z,14.60
2018-06-12T21:17:31.377Z,14.60
2018-06-12T21:19:58.317Z,14.60
2018-06-12T21:22:25.222Z,14.60
2018-06-12T21:24:52.378Z,14.60
2018-06-12T21:27:19.290Z,14.50
2018-06-12T21:29:46.233Z,14.50
2018-06-12T21:32:13.169Z,14.50
2018-06-12T21:34:40.082Z,14.50
2018-06-12T21:37:07.019Z,14.50
2018-06-12T21:39:33.938Z,14.50
2018-06-12T21:42:00.881Z,14.40
2018-06-12T21:44:27.797Z,14.50
2018-06-12T21:46:54.742Z,14.50
2018-06-12T21:49:21.662Z,14.40
2018-06-12T21:51:48.607Z,14.40
2018-06-12T21:54:15.522Z,14.50
2018-06-12T21:56:42.474Z,14.40
2018-06-12T21:59:09.390Z,14.50
2018-06-12T22:01:36.334Z,14.50
2018-06-12T22:04:03.249Z,14.50
2018-06-12T22:06:30.214Z,14.50
2018-06-12T22:08:57.122Z,14.50
2018-06-12T22:11:24.075Z,14.50
2018-06-12T22:13:51.310Z,14.50
2018-06-12T22:16:21.667Z,14.50
2018-06-12T22:18:49.042Z,14.50
2018-06-12T22:21:15.973Z,14.50
2018-06-12T22:23:42.890Z,14.50
2018-06-12T22:26:09.829Z,14.40
2018-06-12T22:28:37.095Z,14.40
2018-06-12T22:31:04.081Z,14.40
2018-06-12T22:33:31.071Z,14.40
2018-06-12T22:35:58.009Z,14.50
2018-06-12T22:38:24.918Z,14.50
2018-06-12T22:40:51.858Z,14.50
2018-06-12T22:43:18.771Z,14.50
2018-06-12T22:45:45.719Z,14.50
2018-06-12T22:48:12.665Z,14.50
2018-06-12T22:50:39.597Z,14.50
2018-06-12T22:53:06.506Z,14.50
2018-06-12T22:58:00.362Z,14.50
2018-06-12T23:00:27.709Z,14.50
2018-06-12T23:02:54.630Z,14.40
2018-06-12T23:05:21.573Z,14.30
2018-06-12T23:07:48.513Z,14.30
2018-06-12T23:10:15.462Z,14.30
2018-06-12T23:12:42.403Z,14.20
2018-06-12T23:15:09.317Z,14.20
2018-06-12T23:17:36.261Z,14.10
2018-06-12T23:20:08.898Z,14.00
2018-06-12T23:22:35.846Z,14.00
2018-06-12T23:25:02.774Z,13.90
2018-06-12T23:29:56.622Z,13.80
2018-06-12T23:32:23.568Z,13.80
2018-06-12T23:34:50.515Z,13.80
2018-06-12T23:37:17.459Z,13.80
2018-06-12T23:39:44.393Z,13.70
2018-06-12T23:42:11.345Z,13.70
2018-06-12T23:44:38.270Z,13.70
2018-06-12T23:47:05.249Z,13.60
2018-06-12T23:49:32.173Z,13.60
2018-06-12T23:51:59.145Z,13.60
2018-06-12T23:54:26.057Z,13.60
2018-06-12T23:59:19.902Z,13.60
